Time;durP1;ratioP1;P1;durP2;ratioP2;P2;SDS_P1;SDS_P2;PMS_P1;PMS_P2;Temp;Humidity;BMP_temperature;BMP_pressure;BME280_temperature;BME280_humidity;BME280_pressure;Samples;Min_cycle;Max_cycle;Signal;HPM_P1;HPM_P2
2022/02/02 00:01:15;;;;;;;36.60;6.38;;;6.30;99.90;;;;;;4973253;28;20031;-88
2022/02/02 00:03:45;;;;;;;28.75;6.70;;;6.30;99.90;;;;;;4962311;28;20039;-89
2022/02/02 00:06:20;;;;;;;37.83;6.97;;;6.30;99.90;;;;;;4976922;28;20435;-90
2022/02/02 00:08:58;;;;;;;38.63;7.50;;;6.30;99.90;;;;;;4979601;28;20174;-90
2022/02/02 00:14:39;;;;;;;45.83;7.13;;;6.20;99.90;;;;;;4936893;29;20028;-89
2022/02/02 00:17:16;;;;;;;31.30;5.88;;;6.20;99.90;;;;;;4972103;28;20066;-90
2022/02/02 00:19:59;;;;;;;27.15;5.22;;;6.10;99.90;;;;;;4990907;28;20033;-91
2022/02/02 00:22:32;;;;;;;25.92;4.57;;;6.10;99.90;;;;;;4982287;28;20027;-91
2022/02/02 00:25:13;;;;;;;26.67;3.92;;;6.00;99.90;;;;;;4977158;28;20033;-90
2022/02/02 00:27:41;;;;;;;26.48;4.28;;;6.00;99.90;;;;;;4956546;28;20082;-92
2022/02/02 00:30:11;;;;;;;23.33;3.22;;;5.90;99.90;;;;;;4973327;28;20041;-91
2022/02/02 00:35:09;;;;;;;;;;;5.90;99.90;;;;;;4977163;28;20041;-92
2022/02/02 00:37:35;;;;;;;12.00;2.75;;;5.70;99.90;;;;;;4975108;28;19942;-90
2022/02/02 00:40:01;;;;;;;15.88;3.08;;;5.70;99.90;;;;;;4976934;28;20039;-92
2022/02/02 00:42:29;;;;;;;17.13;2.67;;;5.70;99.90;;;;;;4978923;28;20063;-90
2022/02/02 00:44:58;;;;;;;14.98;2.88;;;5.80;99.90;;;;;;4948009;28;20161;-90
2022/02/02 00:47:25;;;;;;;18.92;3.08;;;5.70;99.90;;;;;;4977471;28;20026;-91
2022/02/02 00:49:52;;;;;;;19.25;4.10;;;5.80;99.90;;;;;;4991908;28;20130;-94
2022/02/02 00:52:19;;;;;;;21.85;3.92;;;5.80;99.90;;;;;;4981281;28;20033;-94
2022/02/02 00:54:47;;;;;;;24.67;3.83;;;5.70;99.90;;;;;;4977484;28;20019;-93
2022/02/02 00:57:13;;;;;;;23.83;4.65;;;5.80;99.90;;;;;;4988709;28;20031;-92
2022/02/02 00:59:39;;;;;;;19.83;4.95;;;5.80;99.90;;;;;;4992778;28;20561;-94
2022/02/02 01:02:05;;;;;;;19.23;4.03;;;5.90;99.90;;;;;;4960887;28;20046;-86
2022/02/02 01:04:31;;;;;;;22.35;4.10;;;5.90;99.90;;;;;;4977478;28;20050;-95
2022/02/02 01:10:09;;;;;;;26.23;4.60;;;5.90;99.90;;;;;;4986063;28;20125;-95
2022/02/02 01:12:51;;;;;;;27.52;5.57;;;6.00;99.90;;;;;;4995976;28;20054;-96
2022/02/02 01:28:37;;;;;;;22.45;4.70;;;5.90;99.90;;;;;;4982483;28;20332;-91
2022/02/02 01:31:04;;;;;;;27.05;4.63;;;6.00;99.90;;;;;;4994940;28;20047;-92
2022/02/02 01:33:30;;;;;;;22.90;3.70;;;6.00;99.90;;;;;;4981584;28;20069;-91
2022/02/02 01:35:57;;;;;;;22.52;4.57;;;6.00;99.90;;;;;;4954383;28;20031;-94
2022/02/02 01:38:25;;;;;;;23.30;3.80;;;6.10;99.90;;;;;;4992150;28;20102;-94
2022/02/02 01:40:57;;;;;;;27.13;4.45;;;6.10;99.90;;;;;;4956667;28;20042;-94
2022/02/02 01:43:28;;;;;;;18.45;3.75;;;6.10;99.90;;;;;;4980331;28;20153;-95
2022/02/02 01:45:59;;;;;;;22.67;4.05;;;6.10;99.90;;;;;;4963855;28;20050;-94
2022/02/02 01:56:04;;;;;;;17.13;3.58;;;6.00;99.90;;;;;;4961213;29;20042;-93
2022/02/02 02:01:16;;;;;;;23.08;3.75;;;6.00;99.90;;;;;;4956430;29;20497;-95
2022/02/02 02:03:42;;;;;;;23.67;4.18;;;6.10;99.90;;;;;;4961043;28;20015;-95
2022/02/02 02:06:08;;;;;;;21.58;4.20;;;6.10;99.90;;;;;;4956363;29;20047;-93
2022/02/02 02:08:38;;;;;;;19.42;4.47;;;6.20;99.90;;;;;;4933687;29;20039;-95
2022/02/02 02:11:07;;;;;;;23.73;4.90;;;6.20;99.90;;;;;;4957987;29;20038;-95
2022/02/02 02:16:10;;;;;;;23.38;4.50;;;6.30;99.90;;;;;;4960127;28;20038;-92
2022/02/02 02:18:36;;;;;;;20.67;4.80;;;6.20;99.90;;;;;;4973652;28;20056;-93
2022/02/02 02:21:09;;;;;;;23.58;4.63;;;6.20;99.90;;;;;;4969801;28;20111;-93
2022/02/02 02:23:35;;;;;;;25.73;5.18;;;6.10;99.90;;;;;;4952598;29;20058;-94
2022/02/02 02:26:01;;;;;;;23.50;4.85;;;6.10;99.90;;;;;;4956990;28;20027;-93
2022/02/02 02:31:02;;;;;;;28.70;4.75;;;5.90;99.90;;;;;;4957260;29;20055;-93
2022/02/02 02:33:53;;;;;;;22.98;4.97;;;5.90;99.90;;;;;;4959115;29;20114;-94
2022/02/02 02:39:06;;;;;;;22.33;4.82;;;5.80;99.90;;;;;;4957603;29;20063;-93
2022/02/02 02:58:22;;;;;;;29.52;5.15;;;5.50;99.90;;;;;;4985114;28;20053;-94
2022/02/02 03:52:05;;;;;;;35.53;5.22;;;6.10;99.90;;;;;;4978717;28;20120;-92
2022/02/02 03:54:45;;;;;;;27.15;4.82;;;6.10;99.90;;;;;;4998376;28;20042;-92
2022/02/02 04:00:19;;;;;;;30.17;5.18;;;6.10;99.90;;;;;;4983558;28;20037;-93
2022/02/02 04:02:52;;;;;;;21.50;5.70;;;6.10;99.90;;;;;;4961883;28;20039;-93
2022/02/02 04:05:29;;;;;;;30.65;5.35;;;6.10;99.90;;;;;;4995056;28;20329;-93
2022/02/02 04:08:08;;;;;;;30.33;4.88;;;6.20;99.90;;;;;;4997099;28;20066;-95
2022/02/02 04:10:33;;;;;;;26.80;5.95;;;6.10;99.90;;;;;;4965792;28;20045;-94
2022/02/02 04:54:21;;;;;;;22.00;4.75;;;5.90;99.90;;;;;;4968155;28;20038;-92
2022/02/02 04:57:20;;;;;;;19.65;3.92;;;5.90;99.90;;;;;;4989201;28;20054;-92
2022/02/02 04:59:47;;;;;;;17.15;3.40;;;5.80;99.90;;;;;;5000823;28;20110;-93
2022/02/02 05:07:29;;;;;;;24.83;5.30;;;5.80;99.90;;;;;;4977425;28;20096;-94
2022/02/02 05:10:16;;;;;;;27.70;5.82;;;5.80;99.90;;;;;;4996441;28;20125;-91
2022/02/02 05:13:53;;;;;;;23.92;4.72;;;5.80;99.90;;;;;;4979663;28;20042;-87
2022/02/02 05:41:08;;;;;;;20.02;4.70;;;5.70;99.90;;;;;;4993051;28;20121;-96
2022/02/02 05:51:08;;;;;;;20.73;4.50;;;5.70;99.90;;;;;;4974304;28;20042;-92
2022/02/02 05:53:34;;;;;;;22.77;3.95;;;5.70;99.90;;;;;;4998123;28;20118;-96
2022/02/02 05:56:02;;;;;;;25.08;4.50;;;5.70;99.90;;;;;;4950075;28;20034;-96
2022/02/02 05:58:30;;;;;;;23.50;5.00;;;5.70;99.90;;;;;;4986242;28;20023;-96
2022/02/02 06:00:58;;;;;;;23.25;4.03;;;5.70;99.90;;;;;;4970817;28;20255;-94
2022/02/02 06:03:35;;;;;;;28.52;4.93;;;5.70;99.90;;;;;;4985530;28;20060;-94
2022/02/02 06:06:02;;;;;;;23.60;3.80;;;5.80;99.90;;;;;;4995245;28;20514;-95
2022/02/02 06:08:28;;;;;;;21.55;4.07;;;5.80;99.90;;;;;;4983852;28;20026;-96
2022/02/02 06:10:56;;;;;;;20.83;4.03;;;5.70;99.90;;;;;;4968068;28;20050;-96
2022/02/02 06:13:35;;;;;;;22.15;4.10;;;5.70;99.90;;;;;;4984849;28;20031;-96
2022/02/02 06:16:02;;;;;;;19.10;3.97;;;5.70;99.90;;;;;;4986210;28;20030;-94
2022/02/02 06:18:28;;;;;;;20.33;3.88;;;5.70;99.90;;;;;;4986858;28;20034;-95
2022/02/02 06:20:58;;;;;;;20.55;4.10;;;5.70;99.90;;;;;;4986792;28;20458;-94
2022/02/02 06:23:36;;;;;;;21.60;3.90;;;5.70;99.90;;;;;;5004479;28;20076;-94
2022/02/02 06:26:04;;;;;;;22.25;4.43;;;5.70;99.90;;;;;;4994984;28;20041;-96
2022/02/02 06:28:33;;;;;;;25.35;4.18;;;5.60;99.90;;;;;;4989922;28;20089;-96
2022/02/02 06:31:05;;;;;;;28.95;5.47;;;5.60;99.90;;;;;;5002152;28;20366;-97
2022/02/02 06:33:35;;;;;;;;;;;5.60;99.90;;;;;;4989621;28;20022;-96
2022/02/02 06:36:19;;;;;;;20.20;4.20;;;5.60;99.90;;;;;;5003090;28;19909;-96
2022/02/02 06:38:46;;;;;;;20.98;4.25;;;5.50;99.90;;;;;;4975597;28;20037;-96
2022/02/02 06:41:11;;;;;;;31.65;4.88;;;5.40;99.90;;;;;;4979012;28;20026;-95
2022/02/02 06:43:37;;;;;;;24.77;4.50;;;5.50;99.90;;;;;;4971692;28;20122;-96
2022/02/02 06:46:03;;;;;;;22.17;3.80;;;5.50;99.90;;;;;;4973581;28;20523;-96
2022/02/02 06:48:32;;;;;;;25.45;4.15;;;5.40;99.90;;;;;;4992462;28;20034;-96
2022/02/02 06:51:13;;;;;;;20.13;4.55;;;5.50;99.90;;;;;;4988180;28;20042;-96
2022/02/02 06:53:48;;;;;;;18.23;3.90;;;5.40;99.90;;;;;;4987389;28;20032;-96
2022/02/02 07:01:59;;;;;;;23.25;3.95;;;5.30;99.90;;;;;;5005142;28;20067;-96
2022/02/02 07:04:57;;;;;;;25.73;4.45;;;5.30;99.90;;;;;;4982361;28;20049;-94
2022/02/02 07:10:52;;;;;;;23.75;4.03;;;5.30;99.90;;;;;;4992248;28;20065;-94
2022/02/02 07:34:07;;;;;;;25.77;4.90;;;5.70;99.90;;;;;;4992062;28;20045;-87
2022/02/02 07:36:38;;;;;;;17.10;4.40;;;5.70;99.90;;;;;;4994862;28;20117;-90
2022/02/02 07:39:10;;;;;;;30.63;5.57;;;5.70;99.90;;;;;;4966698;28;20031;-94
2022/02/02 07:41:40;;;;;;;30.55;5.53;;;5.80;99.90;;;;;;4962974;28;20038;-92
2022/02/02 07:44:16;;;;;;;24.45;5.28;;;5.80;99.90;;;;;;4959007;28;20062;-91
2022/02/02 07:46:53;;;;;;;27.70;4.40;;;5.80;99.90;;;;;;4964816;28;20083;-93
2022/02/02 07:49:29;;;;;;;25.13;4.80;;;5.80;99.90;;;;;;4994097;28;20517;-92
2022/02/02 07:51:56;;;;;;;28.05;4.38;;;5.70;99.90;;;;;;4977933;28;20034;-91
2022/02/02 07:54:28;;;;;;;29.25;4.63;;;5.70;99.90;;;;;;4982263;28;20026;-92
2022/02/02 07:56:56;;;;;;;25.33;4.95;;;5.80;99.90;;;;;;4996227;28;20026;-91
2022/02/02 08:01:49;;;;;;;26.30;5.00;;;5.70;99.90;;;;;;4976061;28;20056;-91
2022/02/02 08:04:17;;;;;;;36.67;6.47;;;5.80;99.90;;;;;;4961541;28;20101;-91
2022/02/02 08:06:49;;;;;;;31.05;5.18;;;5.80;99.90;;;;;;4975792;28;20065;-91
2022/02/02 08:09:25;;;;;;;29.92;5.03;;;5.80;99.90;;;;;;4981705;28;20662;-91
2022/02/02 08:11:52;;;;;;;22.50;4.97;;;5.90;99.90;;;;;;4980250;28;20043;-92
2022/02/02 08:14:18;;;;;;;25.88;5.50;;;5.90;99.90;;;;;;4965163;28;20086;-91
2022/02/02 08:16:44;;;;;;;32.13;5.07;;;5.90;99.90;;;;;;4981271;28;20022;-90
2022/02/02 08:19:10;;;;;;;27.98;5.30;;;5.80;99.90;;;;;;4960311;28;20098;-90
2022/02/02 08:21:35;;;;;;;33.47;5.00;;;5.80;99.90;;;;;;4943364;28;20368;-88
2022/02/02 08:24:01;;;;;;;29.38;5.07;;;5.80;99.90;;;;;;4970937;28;20054;-89
2022/02/02 08:26:27;;;;;;;28.60;4.38;;;5.80;99.90;;;;;;4967995;28;20463;-89
2022/02/02 08:28:57;;;;;;;23.60;4.25;;;5.90;99.90;;;;;;4979582;28;20046;-89
2022/02/02 08:31:26;;;;;;;30.95;4.75;;;5.90;99.90;;;;;;4984099;28;20097;-89
2022/02/02 08:33:55;;;;;;;25.95;4.38;;;6.00;99.90;;;;;;4974450;28;20521;-88
2022/02/02 08:36:21;;;;;;;20.35;3.90;;;6.00;99.90;;;;;;4976860;28;20093;-89
2022/02/02 08:39:08;;;;;;;19.88;4.85;;;6.00;99.90;;;;;;4981331;28;20496;-89
2022/02/02 08:41:39;;;;;;;22.25;3.85;;;6.10;99.90;;;;;;4966338;28;20647;-89
2022/02/02 08:44:10;;;;;;;24.88;4.88;;;6.10;99.90;;;;;;4989878;28;20022;-89
2022/02/02 08:46:40;;;;;;;25.80;4.63;;;6.10;99.90;;;;;;4964628;28;20113;-89
2022/02/02 08:49:09;;;;;;;26.52;4.82;;;6.10;99.90;;;;;;4979399;28;20034;-89
2022/02/02 08:51:42;;;;;;;24.75;4.13;;;6.20;99.90;;;;;;4975775;28;20034;-90
2022/02/02 08:54:32;;;;;;;22.73;3.95;;;6.20;99.90;;;;;;4962007;28;21378;-91
2022/02/02 09:02:05;;;;;;;23.45;3.83;;;6.30;99.90;;;;;;4990163;28;20061;-88
2022/02/02 09:07:15;;;;;;;25.92;4.53;;;6.30;99.90;;;;;;4999113;28;20083;-89
2022/02/02 09:09:53;;;;;;;23.25;3.97;;;6.30;99.90;;;;;;4950842;28;20050;-89
2022/02/02 09:23:33;;;;;;;18.95;3.72;;;6.50;99.90;;;;;;4993520;28;20162;-88
2022/02/02 09:34:11;;;;;;;20.45;4.43;;;6.80;99.90;;;;;;4980025;28;20019;-89
2022/02/02 09:36:42;;;;;;;27.15;4.25;;;6.80;99.90;;;;;;4962050;28;20087;-88
2022/02/02 09:39:18;;;;;;;25.77;4.43;;;6.90;99.90;;;;;;4972817;28;20037;-89
2022/02/02 09:41:46;;;;;;;29.05;4.65;;;7.00;99.90;;;;;;4999527;28;20026;-91
2022/02/02 09:44:16;;;;;;;25.08;5.10;;;7.20;99.90;;;;;;4981361;28;20060;-90
2022/02/02 09:49:40;;;;;;;20.52;3.78;;;7.30;99.90;;;;;;4961743;28;20149;-89
2022/02/02 09:52:11;;;;;;;23.20;4.28;;;7.30;99.90;;;;;;4997476;28;20062;-90
2022/02/02 10:15:43;;;;;;;16.90;3.10;;;7.80;99.90;;;;;;4995837;28;20514;-87
2022/02/02 10:18:21;;;;;;;20.75;3.53;;;7.80;99.90;;;;;;4997893;28;20896;-87
2022/02/02 10:20:54;;;;;;;18.35;3.88;;;7.90;99.90;;;;;;4977023;28;20524;-87
2022/02/02 10:23:24;;;;;;;25.48;3.85;;;7.90;99.90;;;;;;4978802;28;20030;-86
2022/02/02 10:25:57;;;;;;;20.60;3.90;;;8.00;99.90;;;;;;4997465;28;20422;-88
2022/02/02 10:28:32;;;;;;;15.10;3.30;;;8.10;99.90;;;;;;4980189;28;20046;-88
2022/02/02 10:31:04;;;;;;;21.67;3.75;;;8.20;99.90;;;;;;4986206;28;20040;-88
2022/02/02 10:33:31;;;;;;;18.50;3.40;;;8.40;99.90;;;;;;4990533;28;20026;-88
2022/02/02 10:36:25;;;;;;;21.08;3.50;;;8.50;99.90;;;;;;4991282;28;20018;-87
2022/02/02 10:39:00;;;;;;;16.95;2.80;;;8.60;99.90;;;;;;4980723;28;20037;-89
2022/02/02 10:41:58;;;;;;;20.92;3.33;;;8.60;99.90;;;;;;4975457;28;20092;-87
2022/02/02 10:44:33;;;;;;;21.63;3.47;;;8.60;99.90;;;;;;4976913;28;20037;-86
2022/02/02 10:47:26;;;;;;;14.25;3.47;;;8.60;99.90;;;;;;4973513;28;20039;-89
2022/02/02 10:50:06;;;;;;;18.52;3.22;;;8.50;99.90;;;;;;4976294;28;20038;-88
2022/02/02 10:52:48;;;;;;;17.23;2.72;;;8.60;99.90;;;;;;4976110;28;20117;-90
2022/02/02 11:08:54;;;;;;;16.02;2.85;;;8.90;99.90;;;;;;4983348;28;20053;-88
2022/02/02 11:11:20;;;;;;;21.02;3.83;;;9.00;99.90;;;;;;4965534;28;20129;-86
2022/02/02 11:13:50;;;;;;;18.33;3.10;;;9.20;99.90;;;;;;4976496;28;20023;-88
2022/02/02 11:16:24;;;;;;;19.20;2.97;;;9.50;99.90;;;;;;4994404;28;20030;-89
2022/02/02 11:18:52;;;;;;;21.15;3.35;;;9.60;99.90;;;;;;4980885;28;20042;-88
2022/02/02 11:21:21;;;;;;;17.00;3.85;;;9.80;99.90;;;;;;4958420;28;20031;-88
2022/02/02 11:23:50;;;;;;;20.33;3.03;;;9.90;99.90;;;;;;4976010;28;20134;-88
2022/02/02 11:26:42;;;;;;;18.42;3.08;;;9.90;99.90;;;;;;4978406;28;20034;-87
2022/02/02 11:29:08;;;;;;;;;;;10.00;99.90;;;;;;4973112;28;20038;-86
2022/02/02 11:31:34;;;;;;;14.77;2.45;;;10.00;99.90;;;;;;4985609;28;20400;-88
2022/02/02 11:34:01;;;;;;;24.17;3.70;;;10.00;99.90;;;;;;4971031;28;20064;-87
2022/02/02 11:36:37;;;;;;;24.98;3.30;;;10.00;99.90;;;;;;4981465;28;20089;-88
2022/02/02 11:39:07;;;;;;;20.20;3.30;;;9.90;99.90;;;;;;4979858;28;20120;-88
2022/02/02 11:42:08;;;;;;;20.70;3.10;;;10.00;99.90;;;;;;4977585;28;20027;-88
2022/02/02 11:45:05;;;;;;;14.85;2.90;;;9.90;99.90;;;;;;4983272;28;20021;-87
2022/02/02 11:47:44;;;;;;;15.60;3.00;;;9.90;99.90;;;;;;4964945;28;20057;-87
2022/02/02 11:50:10;;;;;;;13.98;2.78;;;9.90;99.90;;;;;;4964420;29;20043;-87
2022/02/02 11:52:43;;;;;;;17.60;2.53;;;9.80;99.90;;;;;;4964651;28;20019;-87
2022/02/02 11:55:12;;;;;;;17.17;2.40;;;10.00;99.90;;;;;;4949238;29;20047;-86
2022/02/02 11:58:12;;;;;;;17.70;2.78;;;10.00;99.90;;;;;;4979572;28;20028;-87
2022/02/02 12:01:19;;;;;;;11.25;2.75;;;10.10;99.90;;;;;;4949718;29;20031;-86
2022/02/02 12:04:05;;;;;;;16.40;2.85;;;10.20;99.90;;;;;;4966441;29;20024;-87
2022/02/02 12:09:17;;;;;;;13.77;2.70;;;10.30;99.90;;;;;;4965213;28;20036;-87
2022/02/02 12:45:11;;;;;;;12.45;2.47;;;12.90;99.90;;;;;;4937262;29;20846;-86
2022/02/02 12:47:58;;;;;;;13.77;2.30;;;14.30;99.90;;;;;;4939297;29;20120;-86
2022/02/02 12:53:34;;;;;;;14.88;2.95;;;14.60;99.90;;;;;;4925960;29;20485;-86
2022/02/02 12:53:53;;;;;;;14.57;2.42;;;15.70;99.90;;;;;;4939128;29;20074;-87
2022/02/02 12:58:49;;;;;;;11.90;2.53;;;17.20;79.30;;;;;;4938963;29;20054;-87
2022/02/02 13:01:19;;;;;;;14.15;2.28;;;17.40;71.80;;;;;;4917498;29;20142;-88
2022/02/02 13:03:46;;;;;;;14.73;2.47;;;18.40;72.30;;;;;;4936139;29;20023;-87
2022/02/02 13:06:15;;;;;;;13.13;2.30;;;17.70;62.60;;;;;;4937585;29;20055;-86
2022/02/02 13:08:48;;;;;;;16.05;2.22;;;17.20;68.50;;;;;;4935542;29;20020;-86
2022/02/02 13:11:22;;;;;;;16.88;2.97;;;16.00;77.10;;;;;;4933407;29;20044;-87
2022/02/02 13:13:49;;;;;;;16.05;2.28;;;14.70;80.80;;;;;;4925933;29;20519;-86
2022/02/02 13:16:22;;;;;;;15.18;2.70;;;14.10;99.80;;;;;;4917359;29;20032;-87
2022/02/02 13:18:52;;;;;;;13.88;2.08;;;13.50;99.90;;;;;;4932020;29;20064;-87
2022/02/02 13:21:28;;;;;;;13.18;2.33;;;13.00;99.90;;;;;;4920464;29;20035;-87
2022/02/02 13:24:06;;;;;;;14.13;2.85;;;12.60;99.90;;;;;;4936985;29;20032;-86
2022/02/02 13:26:42;;;;;;;19.38;2.97;;;12.20;99.90;;;;;;4938391;29;20103;-87
2022/02/02 13:32:05;;;;;;;17.15;2.80;;;11.90;99.90;;;;;;4935723;29;20055;-87
2022/02/02 13:35:03;;;;;;;12.25;2.47;;;11.70;99.90;;;;;;4936922;29;20016;-87
2022/02/02 13:56:57;;;;;;;14.77;2.75;;;15.60;93.20;;;;;;4974663;28;20051;-88
2022/02/02 14:09:27;;;;;;;16.58;3.80;;;12.90;99.90;;;;;;4960675;28;20059;-87
2022/02/02 14:33:23;;;;;;;11.52;2.70;;;14.00;99.90;;;;;;4949949;28;20132;-88
2022/02/02 14:35:53;;;;;;;22.70;3.60;;;13.80;98.40;;;;;;4931091;28;20031;-88
2022/02/02 14:43:38;;;;;;;15.07;3.55;;;15.40;84.20;;;;;;4965809;23;20063;-43
2022/02/02 14:46:21;;;;;;;12.98;2.70;;;15.40;80.30;;;;;;4964393;28;20031;-40
2022/02/02 14:49:07;;;;;;;;;;;;;;;;;;;;;
2022/02/02 14:52:28;;;;;;;17.52;2.90;;;15.80;78.10;;;;;;4977784;28;20095;-43
2022/02/02 14:55:31;;;;;;;18.15;3.35;;;16.20;77.20;;;;;;4971147;28;20045;-42
2022/02/02 15:07:05;;;;;;;13.85;2.83;;;14.70;82.30;;;;;;4962644;28;20082;-41
2022/02/02 15:09:36;;;;;;;14.77;3.45;;;14.50;85.70;;;;;;4980554;28;20051;-41
2022/02/02 15:28:12;;;;;;;17.83;3.22;;;12.50;99.90;;;;;;4979095;28;20062;-41
2022/02/02 15:33:23;;;;;;;15.98;5.13;;;12.20;99.90;;;;;;4979956;28;20039;-41
2022/02/02 15:35:58;;;;;;;15.70;3.30;;;12.10;99.90;;;;;;4958416;28;20049;-41
2022/02/02 15:38:27;;;;;;;16.80;3.90;;;11.70;99.90;;;;;;4960855;28;20097;-42
2022/02/02 15:40:59;;;;;;;13.43;2.80;;;11.30;99.90;;;;;;4978702;28;20043;-40
2022/02/02 15:43:39;;;;;;;15.82;4.22;;;11.10;99.90;;;;;;4980377;28;20051;-41
2022/02/02 16:02:20;;;;;;;15.32;2.65;;;8.70;99.90;;;;;;4977899;28;20483;-42
2022/02/02 16:04:50;;;;;;;12.63;2.45;;;8.40;99.90;;;;;;4980602;28;20031;-41
2022/02/02 16:07:24;;;;;;;21.00;7.57;;;8.20;99.90;;;;;;4961008;28;20030;-40
2022/02/02 16:09:53;;;;;;;18.45;4.65;;;8.00;99.90;;;;;;4979258;28;20151;-40
2022/02/02 16:12:25;;;;;;;16.35;2.58;;;7.80;99.90;;;;;;4962611;28;20081;-42
2022/02/02 16:15:16;;;;;;;13.85;2.70;;;7.60;99.90;;;;;;4982802;28;20033;-40
2022/02/02 16:31:59;;;;;;;26.23;13.75;;;6.70;99.90;;;;;;4982467;28;20061;-40
2022/02/02 16:34:47;;;;;;;29.40;15.70;;;6.60;99.90;;;;;;4983102;28;20022;-40
2022/02/02 16:37:15;;;;;;;33.10;13.82;;;6.50;99.90;;;;;;4966203;28;20462;-40
2022/02/02 16:39:51;;;;;;;27.33;9.35;;;6.40;99.90;;;;;;4944089;28;20050;-40
2022/02/02 16:45:02;;;;;;;22.70;9.45;;;6.30;99.90;;;;;;4962599;28;20050;-39
2022/02/02 16:47:28;;;;;;;22.35;9.57;;;6.10;99.90;;;;;;4981921;28;20031;-40
2022/02/02 16:49:53;;;;;;;27.77;9.57;;;6.10;99.90;;;;;;4979886;28;20033;-39
2022/02/02 16:52:23;;;;;;;22.80;8.27;;;5.90;99.90;;;;;;4962966;28;20114;-41
2022/02/02 16:54:53;;;;;;;26.40;9.95;;;5.80;99.90;;;;;;4981841;28;20101;-40
2022/02/02 16:57:30;;;;;;;24.23;10.45;;;5.70;99.90;;;;;;4981514;28;20023;-39
2022/02/02 17:32:51;;;;;;;24.33;5.65;;;4.80;99.90;;;;;;4964823;28;20047;-39
2022/02/02 18:18:53;;;;;;;21.25;7.95;;;4.20;99.90;;;;;;4939120;29;20538;-39
2022/02/02 18:21:21;;;;;;;21.23;7.90;;;4.20;99.90;;;;;;4930010;29;20044;-39
2022/02/02 18:24:04;;;;;;;22.95;8.00;;;4.20;99.90;;;;;;4941629;29;20039;-39
2022/02/02 18:26:36;;;;;;;22.38;8.25;;;4.20;99.90;;;;;;4939932;29;20026;-39
2022/02/02 18:50:23;;;;;;;26.38;7.97;;;4.20;99.90;;;;;;4961816;28;20035;-39
2022/02/02 19:57:25;;;;;;;23.70;7.40;;;4.70;99.90;;;;;;4962200;28;20038;-39
2022/02/02 20:10:26;;;;;;;26.88;8.98;;;5.20;99.90;;;;;;4977661;28;20083;-40
2022/02/02 20:12:51;;;;;;;29.65;9.20;;;5.20;99.90;;;;;;4977203;28;20062;-39
2022/02/02 20:15:26;;;;;;;28.27;7.68;;;5.30;99.90;;;;;;4974087;28;20077;-39
2022/02/02 20:17:52;;;;;;;32.60;7.50;;;5.30;99.90;;;;;;4976698;28;20027;-40
2022/02/02 20:20:22;;;;;;;26.67;7.38;;;5.40;99.90;;;;;;4962754;28;20649;-40
2022/02/02 20:22:48;;;;;;;24.23;6.88;;;5.40;99.90;;;;;;4978175;28;20435;-39
2022/02/02 20:25:16;;;;;;;25.65;7.07;;;5.50;99.90;;;;;;4980794;28;20050;-39
2022/02/02 20:27:44;;;;;;;23.90;6.25;;;5.50;99.90;;;;;;4977517;28;20043;-39
2022/02/02 20:30:11;;;;;;;27.40;7.07;;;5.60;99.90;;;;;;4965708;28;20045;-39
2022/02/02 20:32:42;;;;;;;28.73;6.40;;;5.70;99.90;;;;;;4976197;28;20041;-39
2022/02/02 20:35:08;;;;;;;25.00;5.80;;;5.80;99.90;;;;;;4979228;28;20382;-39
2022/02/02 20:37:33;;;;;;;30.75;7.00;;;5.80;99.90;;;;;;4977910;28;20041;-39
2022/02/02 20:40:02;;;;;;;31.08;7.65;;;5.90;99.90;;;;;;4959253;28;20055;-39
2022/02/02 20:42:37;;;;;;;24.75;6.35;;;5.90;99.90;;;;;;4976088;28;20057;-39
2022/02/02 21:14:47;;;;;;;32.72;10.23;;;6.20;99.90;;;;;;4978579;28;21576;-39
2022/02/02 21:17:27;;;;;;;30.15;9.38;;;6.20;99.90;;;;;;4976737;28;20034;-39
2022/02/02 21:20:11;;;;;;;40.03;10.38;;;6.20;99.90;;;;;;4959652;28;20364;-39
2022/02/02 21:22:54;;;;;;;31.80;10.00;;;6.20;99.90;;;;;;4975501;28;20039;-39
2022/02/02 21:25:34;;;;;;;35.58;10.52;;;6.20;99.90;;;;;;4958257;28;20554;-39
2022/02/02 21:28:02;;;;;;;30.23;10.02;;;6.20;99.90;;;;;;4978865;28;20023;-39
2022/02/02 21:30:32;;;;;;;38.17;11.88;;;6.20;99.90;;;;;;4976324;28;20022;-39
2022/02/02 21:32:58;;;;;;;36.70;10.95;;;6.20;99.90;;;;;;4975956;28;20045;-38
2022/02/02 21:35:25;;;;;;;28.15;10.85;;;6.20;99.90;;;;;;4977378;28;20062;-39
2022/02/02 21:38:00;;;;;;;31.33;10.45;;;6.30;99.90;;;;;;4979847;28;20034;-38
2022/02/02 21:40:32;;;;;;;31.08;10.20;;;6.30;99.90;;;;;;4962750;28;20066;-37
2022/02/02 21:43:36;;;;;;;31.48;11.32;;;6.30;99.90;;;;;;4980053;28;20106;-37
2022/02/02 21:46:05;;;;;;;31.92;11.98;;;6.30;99.90;;;;;;4971086;28;20379;-44
2022/02/02 21:48:33;;;;;;;26.88;10.13;;;6.30;99.90;;;;;;4973432;28;20457;-38
2022/02/02 21:51:08;;;;;;;31.98;10.90;;;6.30;99.90;;;;;;4958280;28;20102;-41
2022/02/02 21:53:34;;;;;;;35.83;12.18;;;6.30;99.90;;;;;;4976042;28;20025;-38
2022/02/02 21:56:00;;;;;;;38.88;12.68;;;6.40;99.90;;;;;;4976091;28;20090;-37
2022/02/02 21:58:25;;;;;;;45.65;17.48;;;6.40;99.90;;;;;;4977674;28;20041;-37
2022/02/02 22:00:51;;;;;;;94.70;46.80;;;6.40;99.90;;;;;;4975419;28;20039;-38
2022/02/02 22:03:18;;;;;;;52.25;21.80;;;6.40;99.90;;;;;;4977110;28;20023;-37
2022/02/02 22:05:44;;;;;;;50.92;19.10;;;6.50;99.90;;;;;;4976539;28;20031;-37
2022/02/02 22:08:10;;;;;;;37.33;14.77;;;6.50;99.90;;;;;;4972758;28;20031;-37
2022/02/02 22:10:38;;;;;;;37.58;15.63;;;6.60;99.90;;;;;;4974723;28;20042;-37
2022/02/02 22:13:08;;;;;;;43.30;15.13;;;6.60;99.90;;;;;;4960270;28;20034;-37
2022/02/02 22:15:43;;;;;;;38.25;14.05;;;6.60;99.90;;;;;;4970363;28;20031;-37
2022/02/02 22:18:10;;;;;;;37.45;14.38;;;6.60;99.90;;;;;;4973312;28;20187;-37
2022/02/02 22:20:35;;;;;;;39.53;15.73;;;6.70;99.90;;;;;;4958661;28;20030;-37
2022/02/02 22:23:01;;;;;;;43.17;17.35;;;6.70;99.90;;;;;;4972809;28;20027;-37
2022/02/02 22:25:27;;;;;;;42.63;16.85;;;6.80;99.90;;;;;;4972546;28;20064;-36
2022/02/02 22:27:53;;;;;;;42.38;16.35;;;6.80;99.90;;;;;;4972480;28;20046;-37
2022/02/02 22:30:19;;;;;;;45.55;18.27;;;6.80;99.90;;;;;;4975981;28;20040;-36
2022/02/02 22:32:44;;;;;;;43.33;17.75;;;6.90;99.90;;;;;;4975003;28;20054;-37
2022/02/02 22:35:10;;;;;;;34.63;16.13;;;6.90;99.90;;;;;;4976123;28;21275;-37
2022/02/02 22:37:36;;;;;;;39.65;15.88;;;7.00;99.90;;;;;;4942949;28;20118;-37
2022/02/02 22:40:04;;;;;;;36.42;16.15;;;7.00;99.90;;;;;;4974535;28;20033;-37
2022/02/02 22:42:30;;;;;;;34.50;15.82;;;7.00;99.90;;;;;;4979970;28;20118;-36
2022/02/02 22:45:00;;;;;;;35.08;16.63;;;7.00;99.90;;;;;;4978366;28;20561;-37
2022/02/02 22:47:31;;;;;;;32.17;15.45;;;7.10;99.90;;;;;;4979978;28;20027;-37
2022/02/02 22:49:58;;;;;;;32.17;16.35;;;7.00;99.90;;;;;;4979899;28;20049;-39
2022/02/02 22:52:23;;;;;;;32.88;15.07;;;7.10;99.90;;;;;;4977678;28;20031;-37
2022/02/02 22:54:50;;;;;;;38.85;17.92;;;7.10;99.90;;;;;;4959161;28;20020;-37
2022/02/02 22:57:15;;;;;;;46.83;19.38;;;7.10;99.90;;;;;;4978787;28;20019;-37
2022/02/02 22:59:45;;;;;;;42.83;19.70;;;7.20;99.90;;;;;;4980178;28;20027;-37
2022/02/02 23:04:58;;;;;;;51.22;23.42;;;7.20;99.90;;;;;;4979653;28;20045;-37
2022/02/02 23:07:24;;;;;;;55.97;23.70;;;7.30;99.90;;;;;;4943213;28;20031;-37
2022/02/02 23:09:51;;;;;;;50.63;23.48;;;7.30;99.90;;;;;;4977141;28;20038;-37
2022/02/02 23:12:19;;;;;;;53.67;24.83;;;7.30;99.90;;;;;;4978860;28;20498;-37
2022/02/02 23:14:45;;;;;;;52.28;24.08;;;7.30;99.90;;;;;;4972767;28;20035;-38
2022/02/02 23:17:11;;;;;;;56.10;25.02;;;7.40;99.90;;;;;;4968732;28;20107;-37
2022/02/02 23:19:41;;;;;;;55.45;25.67;;;7.40;99.90;;;;;;4953417;28;20031;-37
2022/02/02 23:22:13;;;;;;;57.33;26.08;;;7.50;99.90;;;;;;4972698;28;20026;-38
2022/02/02 23:24:44;;;;;;;56.65;26.30;;;7.50;99.90;;;;;;4956576;28;20066;-37
2022/02/02 23:27:11;;;;;;;67.10;28.10;;;7.50;99.90;;;;;;4980324;28;20510;-38
2022/02/02 23:29:46;;;;;;;71.45;28.08;;;7.50;99.90;;;;;;4974333;28;20015;-38
2022/02/02 23:32:12;;;;;;;71.90;28.42;;;7.60;99.90;;;;;;4974788;28;20039;-38
2022/02/02 23:34:40;;;;;;;65.57;26.98;;;7.60;99.90;;;;;;4958843;28;20038;-45
2022/02/02 23:37:09;;;;;;;64.72;27.45;;;7.60;99.90;;;;;;4977448;28;20054;-38
2022/02/02 23:39:35;;;;;;;63.05;27.45;;;7.60;99.90;;;;;;4958452;28;20395;-38
2022/02/02 23:44:49;;;;;;;57.72;26.50;;;7.70;99.90;;;;;;4978534;28;20062;-37
2022/02/02 23:47:17;;;;;;;58.05;24.77;;;7.70;99.90;;;;;;4981017;28;20050;-38
2022/02/02 23:50:08;;;;;;;64.55;27.15;;;7.80;99.90;;;;;;4977060;28;20462;-38
2022/02/02 23:52:44;;;;;;;60.30;26.40;;;7.80;99.90;;;;;;4977739;28;20077;-37
2022/02/02 23:55:37;;;;;;;60.67;24.90;;;7.80;99.90;;;;;;4962912;28;20045;-38
2022/02/02 23:58:11;;;;;;;59.45;24.63;;;7.80;99.90;;;;;;4978257;28;20026;-37
